sensor_id;sensor_type;location;lat;lon;timestamp;pressure;altitude;pressure_sealevel;temperature
69590;BMP180;56792;50.644;17.984;2023-12-20T00:00:56;99112.60;;;4.70
69590;BMP180;56792;50.644;17.984;2023-12-20T00:03:27;99113.60;;;4.70
69590;BMP180;56792;50.644;17.984;2023-12-20T00:05:59;99109.60;;;4.60
69590;BMP180;56792;50.644;17.984;2023-12-20T00:08:30;99108.60;;;4.60
69590;BMP180;56792;50.644;17.984;2023-12-20T00:11:01;99095.20;;;4.60
69590;BMP180;56792;50.644;17.984;2023-12-20T00:13:32;99093.00;;;4.60
69590;BMP180;56792;50.644;17.984;2023-12-20T00:16:03;99091.00;;;4.60
69590;BMP180;56792;50.644;17.984;2023-12-20T00:18:34;99087.40;;;4.60
69590;BMP180;56792;50.644;17.984;2023-12-20T00:21:06;99093.40;;;4.60
69590;BMP180;56792;50.644;17.984;2023-12-20T00:23:37;99091.60;;;4.60
69590;BMP180;56792;50.644;17.984;2023-12-20T00:26:08;99090.40;;;4.68
69590;BMP180;56792;50.644;17.984;2023-12-20T00:28:39;99082.80;;;4.70
69590;BMP180;56792;50.644;17.984;2023-12-20T00:31:10;99094.00;;;4.70
69590;BMP180;56792;50.644;17.984;2023-12-20T00:33:41;99090.80;;;4.62
69590;BMP180;56792;50.644;17.984;2023-12-20T00:36:13;99085.80;;;4.70
69590;BMP180;56792;50.644;17.984;2023-12-20T00:38:44;99085.40;;;4.70
69590;BMP180;56792;50.644;17.984;2023-12-20T00:41:15;99084.00;;;4.60
69590;BMP180;56792;50.644;17.984;2023-12-20T00:43:46;99079.80;;;4.60
69590;BMP180;56792;50.644;17.984;2023-12-20T00:46:17;99080.60;;;4.60
69590;BMP180;56792;50.644;17.984;2023-12-20T00:48:49;99085.60;;;4.68
69590;BMP180;56792;50.644;17.984;2023-12-20T00:51:20;99085.60;;;4.60
69590;BMP180;56792;50.644;17.984;2023-12-20T00:53:52;99086.20;;;4.60
69590;BMP180;56792;50.644;17.984;2023-12-20T00:56:24;99081.60;;;4.60
69590;BMP180;56792;50.644;17.984;2023-12-20T00:58:55;99079.40;;;4.62
69590;BMP180;56792;50.644;17.984;2023-12-20T01:01:26;99074.40;;;4.70
69590;BMP180;56792;50.644;17.984;2023-12-20T01:03:57;99064.60;;;4.70
69590;BMP180;56792;50.644;17.984;2023-12-20T01:06:28;99063.20;;;4.70
69590;BMP180;56792;50.644;17.984;2023-12-20T01:08:59;99063.20;;;4.70
69590;BMP180;56792;50.644;17.984;2023-12-20T01:11:30;99057.00;;;4.70
69590;BMP180;56792;50.644;17.984;2023-12-20T01:14:01;99057.80;;;4.70
69590;BMP180;56792;50.644;17.984;2023-12-20T01:16:32;99052.40;;;4.70
69590;BMP180;56792;50.644;17.984;2023-12-20T01:19:03;99047.80;;;4.60
69590;BMP180;56792;50.644;17.984;2023-12-20T01:21:34;99054.60;;;4.60
69590;BMP180;56792;50.644;17.984;2023-12-20T01:24:05;99062.40;;;4.64
69590;BMP180;56792;50.644;17.984;2023-12-20T01:26:36;99057.00;;;4.64
69590;BMP180;56792;50.644;17.984;2023-12-20T01:29:07;99045.00;;;4.70
69590;BMP180;56792;50.644;17.984;2023-12-20T01:31:38;99040.40;;;4.78
69590;BMP180;56792;50.644;17.984;2023-12-20T01:34:10;99033.40;;;4.80
69590;BMP180;56792;50.644;17.984;2023-12-20T01:36:41;99035.40;;;4.80
69590;BMP180;56792;50.644;17.984;2023-12-20T01:39:12;99029.40;;;4.90
69590;BMP180;56792;50.644;17.984;2023-12-20T01:41:43;99028.40;;;4.90
69590;BMP180;56792;50.644;17.984;2023-12-20T01:44:15;99022.00;;;5.00
69590;BMP180;56792;50.644;17.984;2023-12-20T01:46:46;99014.80;;;5.10
69590;BMP180;56792;50.644;17.984;2023-12-20T01:49:18;99018.00;;;5.10
69590;BMP180;56792;50.644;17.984;2023-12-20T01:51:49;99015.40;;;5.20
69590;BMP180;56792;50.644;17.984;2023-12-20T01:54:22;99013.20;;;5.20
69590;BMP180;56792;50.644;17.984;2023-12-20T01:56:54;99005.00;;;5.20
69590;BMP180;56792;50.644;17.984;2023-12-20T01:59:25;98998.00;;;5.20
69590;BMP180;56792;50.644;17.984;2023-12-20T02:01:56;98996.40;;;5.20
69590;BMP180;56792;50.644;17.984;2023-12-20T02:04:28;98992.20;;;5.30
69590;BMP180;56792;50.644;17.984;2023-12-20T02:07:00;98990.40;;;5.30
69590;BMP180;56792;50.644;17.984;2023-12-20T02:09:33;98993.60;;;5.30
69590;BMP180;56792;50.644;17.984;2023-12-20T02:12:04;98989.60;;;5.30
69590;BMP180;56792;50.644;17.984;2023-12-20T02:14:36;98990.20;;;5.30
69590;BMP180;56792;50.644;17.984;2023-12-20T02:17:07;98986.60;;;5.30
69590;BMP180;56792;50.644;17.984;2023-12-20T02:19:38;98993.20;;;5.30
69590;BMP180;56792;50.644;17.984;2023-12-20T02:22:11;98991.20;;;5.30
69590;BMP180;56792;50.644;17.984;2023-12-20T02:24:42;98993.60;;;5.30
69590;BMP180;56792;50.644;17.984;2023-12-20T02:27:13;98987.80;;;5.30
69590;BMP180;56792;50.644;17.984;2023-12-20T02:29:48;98992.00;;;5.30
69590;BMP180;56792;50.644;17.984;2023-12-20T02:32:19;98980.40;;;5.30
69590;BMP180;56792;50.644;17.984;2023-12-20T02:34:51;98977.40;;;5.30
69590;BMP180;56792;50.644;17.984;2023-12-20T02:37:22;98975.40;;;5.30
69590;BMP180;56792;50.644;17.984;2023-12-20T02:39:53;98977.60;;;5.30
69590;BMP180;56792;50.644;17.984;2023-12-20T02:42:24;98975.40;;;5.30
69590;BMP180;56792;50.644;17.984;2023-12-20T02:44:55;98970.80;;;5.30
69590;BMP180;56792;50.644;17.984;2023-12-20T02:47:26;98968.40;;;5.30
69590;BMP180;56792;50.644;17.984;2023-12-20T02:49:59;98968.40;;;5.30
69590;BMP180;56792;50.644;17.984;2023-12-20T02:52:30;98960.20;;;5.30
69590;BMP180;56792;50.644;17.984;2023-12-20T02:55:01;98957.00;;;5.28
69590;BMP180;56792;50.644;17.984;2023-12-20T02:57:32;98958.20;;;5.20
69590;BMP180;56792;50.644;17.984;2023-12-20T03:00:07;98955.60;;;5.20
69590;BMP180;56792;50.644;17.984;2023-12-20T03:02:39;98954.60;;;5.20
69590;BMP180;56792;50.644;17.984;2023-12-20T03:05:10;98959.60;;;5.20
69590;BMP180;56792;50.644;17.984;2023-12-20T03:07:41;98954.20;;;5.12
69590;BMP180;56792;50.644;17.984;2023-12-20T03:10:13;98949.20;;;5.10
69590;BMP180;56792;50.644;17.984;2023-12-20T03:12:44;98951.80;;;5.10
69590;BMP180;56792;50.644;17.984;2023-12-20T03:15:15;98943.80;;;5.10
69590;BMP180;56792;50.644;17.984;2023-12-20T03:17:46;98943.80;;;5.10
69590;BMP180;56792;50.644;17.984;2023-12-20T03:20:17;98935.20;;;5.08
69590;BMP180;56792;50.644;17.984;2023-12-20T03:22:48;98929.40;;;5.00
69590;BMP180;56792;50.644;17.984;2023-12-20T03:25:19;98931.80;;;5.00
69590;BMP180;56792;50.644;17.984;2023-12-20T03:27:50;98941.80;;;5.00
69590;BMP180;56792;50.644;17.984;2023-12-20T03:30:21;98938.60;;;5.00
69590;BMP180;56792;50.644;17.984;2023-12-20T03:32:52;98941.20;;;5.00
69590;BMP180;56792;50.644;17.984;2023-12-20T03:35:23;98933.60;;;5.00
69590;BMP180;56792;50.644;17.984;2023-12-20T03:37:54;98929.40;;;5.00
69590;BMP180;56792;50.644;17.984;2023-12-20T03:40:26;98936.40;;;5.00
69590;BMP180;56792;50.644;17.984;2023-12-20T03:42:57;98932.60;;;5.00
69590;BMP180;56792;50.644;17.984;2023-12-20T03:45:28;98930.00;;;5.00
69590;BMP180;56792;50.644;17.984;2023-12-20T03:47:59;98932.00;;;5.00
69590;BMP180;56792;50.644;17.984;2023-12-20T03:50:30;98934.80;;;4.94
69590;BMP180;56792;50.644;17.984;2023-12-20T03:53:01;98939.40;;;5.00
69590;BMP180;56792;50.644;17.984;2023-12-20T03:55:33;98940.40;;;5.00
69590;BMP180;56792;50.644;17.984;2023-12-20T03:58:04;98944.00;;;5.00
69590;BMP180;56792;50.644;17.984;2023-12-20T04:00:35;98941.20;;;4.96
69590;BMP180;56792;50.644;17.984;2023-12-20T04:03:07;98935.40;;;4.94
69590;BMP180;56792;50.644;17.984;2023-12-20T04:05:38;98938.20;;;4.90
69590;BMP180;56792;50.644;17.984;2023-12-20T04:08:10;98936.80;;;4.90
69590;BMP180;56792;50.644;17.984;2023-12-20T04:10:41;98933.40;;;4.90
69590;BMP180;56792;50.644;17.984;2023-12-20T04:13:12;98933.80;;;4.90
69590;BMP180;56792;50.644;17.984;2023-12-20T04:15:43;98941.20;;;4.90
69590;BMP180;56792;50.644;17.984;2023-12-20T04:18:14;98943.00;;;4.90
69590;BMP180;56792;50.644;17.984;2023-12-20T04:20:45;98943.00;;;4.90
69590;BMP180;56792;50.644;17.984;2023-12-20T04:23:16;98941.40;;;4.90
69590;BMP180;56792;50.644;17.984;2023-12-20T04:25:47;98939.00;;;4.90
69590;BMP180;56792;50.644;17.984;2023-12-20T04:28:18;98941.60;;;4.90
69590;BMP180;56792;50.644;17.984;2023-12-20T04:30:50;98941.20;;;4.90
69590;BMP180;56792;50.644;17.984;2023-12-20T04:33:21;98941.00;;;4.90
69590;BMP180;56792;50.644;17.984;2023-12-20T04:35:52;98933.40;;;4.90
69590;BMP180;56792;50.644;17.984;2023-12-20T04:38:23;98931.60;;;4.90
69590;BMP180;56792;50.644;17.984;2023-12-20T04:40:54;98934.60;;;4.90
69590;BMP180;56792;50.644;17.984;2023-12-20T04:43:25;98934.40;;;4.90
69590;BMP180;56792;50.644;17.984;2023-12-20T04:45:56;98935.80;;;4.90
69590;BMP180;56792;50.644;17.984;2023-12-20T04:48:27;98935.60;;;4.90
69590;BMP180;56792;50.644;17.984;2023-12-20T04:50:58;98936.00;;;4.88
69590;BMP180;56792;50.644;17.984;2023-12-20T04:53:29;98936.80;;;4.90
69590;BMP180;56792;50.644;17.984;2023-12-20T04:56:00;98940.80;;;4.84
69590;BMP180;56792;50.644;17.984;2023-12-20T04:58:31;98934.80;;;4.86
69590;BMP180;56792;50.644;17.984;2023-12-20T05:01:02;98933.20;;;4.80
69590;BMP180;56792;50.644;17.984;2023-12-20T05:03:33;98930.40;;;4.80
69590;BMP180;56792;50.644;17.984;2023-12-20T05:06:05;98930.00;;;4.80
69590;BMP180;56792;50.644;17.984;2023-12-20T05:08:36;98920.00;;;4.80
69590;BMP180;56792;50.644;17.984;2023-12-20T05:11:07;98926.80;;;4.80
69590;BMP180;56792;50.644;17.984;2023-12-20T05:13:39;98927.80;;;4.80
69590;BMP180;56792;50.644;17.984;2023-12-20T05:16:11;98927.60;;;4.80
69590;BMP180;56792;50.644;17.984;2023-12-20T05:18:43;98928.40;;;4.80
69590;BMP180;56792;50.644;17.984;2023-12-20T05:21:15;98928.00;;;4.80
69590;BMP180;56792;50.644;17.984;2023-12-20T05:23:46;98928.80;;;4.80
69590;BMP180;56792;50.644;17.984;2023-12-20T05:26:17;98929.60;;;4.80
69590;BMP180;56792;50.644;17.984;2023-12-20T05:28:48;98932.40;;;4.76
69590;BMP180;56792;50.644;17.984;2023-12-20T05:31:19;98927.40;;;4.72
69590;BMP180;56792;50.644;17.984;2023-12-20T05:33:50;98925.80;;;4.70
69590;BMP180;56792;50.644;17.984;2023-12-20T05:36:21;98921.20;;;4.74
69590;BMP180;56792;50.644;17.984;2023-12-20T05:38:52;98923.60;;;4.70
69590;BMP180;56792;50.644;17.984;2023-12-20T05:41:23;98929.80;;;4.70
69590;BMP180;56792;50.644;17.984;2023-12-20T05:43:54;98931.20;;;4.70
69590;BMP180;56792;50.644;17.984;2023-12-20T05:46:27;98925.60;;;4.70
69590;BMP180;56792;50.644;17.984;2023-12-20T05:48:58;98931.00;;;4.70
69590;BMP180;56792;50.644;17.984;2023-12-20T05:51:29;98932.20;;;4.68
69590;BMP180;56792;50.644;17.984;2023-12-20T05:54:00;98933.80;;;4.68
69590;BMP180;56792;50.644;17.984;2023-12-20T05:56:31;98935.40;;;4.62
69590;BMP180;56792;50.644;17.984;2023-12-20T05:59:02;98938.40;;;4.60
69590;BMP180;56792;50.644;17.984;2023-12-20T06:01:33;98937.40;;;4.60
69590;BMP180;56792;50.644;17.984;2023-12-20T06:04:05;98935.40;;;4.60
69590;BMP180;56792;50.644;17.984;2023-12-20T06:06:39;98932.60;;;4.60
69590;BMP180;56792;50.644;17.984;2023-12-20T06:09:11;98937.20;;;4.60
69590;BMP180;56792;50.644;17.984;2023-12-20T06:11:42;98943.80;;;4.60
69590;BMP180;56792;50.644;17.984;2023-12-20T06:14:13;98942.40;;;4.60
69590;BMP180;56792;50.644;17.984;2023-12-20T06:16:44;98947.00;;;4.58
69590;BMP180;56792;50.644;17.984;2023-12-20T06:19:15;98952.60;;;4.58
69590;BMP180;56792;50.644;17.984;2023-12-20T06:21:46;98955.80;;;4.58
69590;BMP180;56792;50.644;17.984;2023-12-20T06:24:17;98950.80;;;4.50
69590;BMP180;56792;50.644;17.984;2023-12-20T06:26:48;98950.80;;;4.50
69590;BMP180;56792;50.644;17.984;2023-12-20T06:29:19;98957.00;;;4.50
69590;BMP180;56792;50.644;17.984;2023-12-20T06:31:50;98955.00;;;4.50
69590;BMP180;56792;50.644;17.984;2023-12-20T06:34:21;98954.60;;;4.50
69590;BMP180;56792;50.644;17.984;2023-12-20T06:36:52;98953.60;;;4.50
69590;BMP180;56792;50.644;17.984;2023-12-20T06:39:23;98954.60;;;4.50
69590;BMP180;56792;50.644;17.984;2023-12-20T06:41:54;98954.80;;;4.50
69590;BMP180;56792;50.644;17.984;2023-12-20T06:44:25;98959.40;;;4.50
69590;BMP180;56792;50.644;17.984;2023-12-20T06:46:56;98954.60;;;4.50
69590;BMP180;56792;50.644;17.984;2023-12-20T06:49:28;98955.80;;;4.50
69590;BMP180;56792;50.644;17.984;2023-12-20T06:51:59;98956.80;;;4.50
69590;BMP180;56792;50.644;17.984;2023-12-20T06:54:30;98953.60;;;4.44
69590;BMP180;56792;50.644;17.984;2023-12-20T06:57:01;98962.60;;;4.48
69590;BMP180;56792;50.644;17.984;2023-12-20T06:59:32;98963.80;;;4.44
69590;BMP180;56792;50.644;17.984;2023-12-20T07:02:04;98960.40;;;4.40
69590;BMP180;56792;50.644;17.984;2023-12-20T07:04:35;98962.40;;;4.40
69590;BMP180;56792;50.644;17.984;2023-12-20T07:07:09;98964.40;;;4.40
69590;BMP180;56792;50.644;17.984;2023-12-20T07:09:40;98959.60;;;4.40
69590;BMP180;56792;50.644;17.984;2023-12-20T07:12:12;98958.40;;;4.40
69590;BMP180;56792;50.644;17.984;2023-12-20T07:14:43;98963.20;;;4.40
69590;BMP180;56792;50.644;17.984;2023-12-20T07:17:14;98961.00;;;4.40
69590;BMP180;56792;50.644;17.984;2023-12-20T07:19:45;98959.60;;;4.38
69590;BMP180;56792;50.644;17.984;2023-12-20T07:22:16;98957.80;;;4.30
69590;BMP180;56792;50.644;17.984;2023-12-20T07:24:47;98965.20;;;4.30
69590;BMP180;56792;50.644;17.984;2023-12-20T07:27:19;98967.80;;;4.30
69590;BMP180;56792;50.644;17.984;2023-12-20T07:29:50;98968.00;;;4.30
69590;BMP180;56792;50.644;17.984;2023-12-20T07:32:21;98970.20;;;4.30
69590;BMP180;56792;50.644;17.984;2023-12-20T07:34:52;98970.60;;;4.30
69590;BMP180;56792;50.644;17.984;2023-12-20T07:37:24;98969.40;;;4.30
69590;BMP180;56792;50.644;17.984;2023-12-20T07:39:55;98974.40;;;4.30
69590;BMP180;56792;50.644;17.984;2023-12-20T07:42:26;98972.80;;;4.30
69590;BMP180;56792;50.644;17.984;2023-12-20T07:44:57;98981.00;;;4.30
69590;BMP180;56792;50.644;17.984;2023-12-20T07:47:28;98979.60;;;4.30
69590;BMP180;56792;50.644;17.984;2023-12-20T07:49:59;98975.80;;;4.30
69590;BMP180;56792;50.644;17.984;2023-12-20T07:52:30;98978.20;;;4.30
69590;BMP180;56792;50.644;17.984;2023-12-20T07:55:01;98981.60;;;4.30
69590;BMP180;56792;50.644;17.984;2023-12-20T07:57:33;98985.60;;;4.22
69590;BMP180;56792;50.644;17.984;2023-12-20T08:00:06;98987.80;;;4.24
69590;BMP180;56792;50.644;17.984;2023-12-20T08:02:38;98987.20;;;4.20
69590;BMP180;56792;50.644;17.984;2023-12-20T08:05:09;98997.60;;;4.20
69590;BMP180;56792;50.644;17.984;2023-12-20T08:07:40;98997.40;;;4.20
69590;BMP180;56792;50.644;17.984;2023-12-20T08:10:12;98996.40;;;4.20
69590;BMP180;56792;50.644;17.984;2023-12-20T08:12:43;98997.20;;;4.20
69590;BMP180;56792;50.644;17.984;2023-12-20T08:15:14;99004.40;;;4.20
69590;BMP180;56792;50.644;17.984;2023-12-20T08:17:45;99002.60;;;4.20
69590;BMP180;56792;50.644;17.984;2023-12-20T08:20:16;99006.00;;;4.20
69590;BMP180;56792;50.644;17.984;2023-12-20T08:22:47;99003.60;;;4.20
69590;BMP180;56792;50.644;17.984;2023-12-20T08:25:18;99007.80;;;4.20
69590;BMP180;56792;50.644;17.984;2023-12-20T08:27:49;99008.40;;;4.20
69590;BMP180;56792;50.644;17.984;2023-12-20T08:30:20;99006.00;;;4.20
69590;BMP180;56792;50.644;17.984;2023-12-20T08:32:51;99007.00;;;4.20
69590;BMP180;56792;50.644;17.984;2023-12-20T08:35:22;99002.80;;;4.20
69590;BMP180;56792;50.644;17.984;2023-12-20T08:37:53;99007.20;;;4.20
69590;BMP180;56792;50.644;17.984;2023-12-20T08:40:26;99008.20;;;4.20
69590;BMP180;56792;50.644;17.984;2023-12-20T08:42:57;99006.40;;;4.20
69590;BMP180;56792;50.644;17.984;2023-12-20T08:45:28;99000.60;;;4.20
69590;BMP180;56792;50.644;17.984;2023-12-20T08:47:59;99002.80;;;4.20
69590;BMP180;56792;50.644;17.984;2023-12-20T08:50:30;99004.60;;;4.20
69590;BMP180;56792;50.644;17.984;2023-12-20T08:53:01;99006.60;;;4.20
69590;BMP180;56792;50.644;17.984;2023-12-20T08:55:32;99001.00;;;4.20
69590;BMP180;56792;50.644;17.984;2023-12-20T08:58:04;99002.80;;;4.20
69590;BMP180;56792;50.644;17.984;2023-12-20T09:00:36;99004.60;;;4.30
69590;BMP180;56792;50.644;17.984;2023-12-20T09:03:08;99007.80;;;4.30
69590;BMP180;56792;50.644;17.984;2023-12-20T09:05:39;99003.20;;;4.30
69590;BMP180;56792;50.644;17.984;2023-12-20T09:08:10;99002.40;;;4.30
69590;BMP180;56792;50.644;17.984;2023-12-20T09:10:42;99005.20;;;4.40
69590;BMP180;56792;50.644;17.984;2023-12-20T09:13:14;99002.80;;;4.40
69590;BMP180;56792;50.644;17.984;2023-12-20T09:15:45;98999.60;;;4.40
69590;BMP180;56792;50.644;17.984;2023-12-20T09:18:16;99004.40;;;4.40
69590;BMP180;56792;50.644;17.984;2023-12-20T09:20:47;99004.20;;;4.40
69590;BMP180;56792;50.644;17.984;2023-12-20T09:23:18;99005.00;;;4.40
69590;BMP180;56792;50.644;17.984;2023-12-20T09:25:49;99001.20;;;4.48
69590;BMP180;56792;50.644;17.984;2023-12-20T09:28:20;99002.80;;;4.50
69590;BMP180;56792;50.644;17.984;2023-12-20T09:30:51;99000.20;;;4.50
69590;BMP180;56792;50.644;17.984;2023-12-20T09:33:23;98995.80;;;4.50
69590;BMP180;56792;50.644;17.984;2023-12-20T09:35:54;98997.20;;;4.54
69590;BMP180;56792;50.644;17.984;2023-12-20T09:38:25;98994.40;;;4.60
69590;BMP180;56792;50.644;17.984;2023-12-20T09:40:56;98989.40;;;4.60
69590;BMP180;56792;50.644;17.984;2023-12-20T09:43:28;98990.80;;;4.60
69590;BMP180;56792;50.644;17.984;2023-12-20T09:46:06;98991.80;;;4.60
69590;BMP180;56792;50.644;17.984;2023-12-20T09:48:39;98992.40;;;4.60
69590;BMP180;56792;50.644;17.984;2023-12-20T09:51:11;98993.20;;;4.60
69590;BMP180;56792;50.644;17.984;2023-12-20T09:53:44;98991.00;;;4.60
69590;BMP180;56792;50.644;17.984;2023-12-20T09:56:17;98997.20;;;4.60
69590;BMP180;56792;50.644;17.984;2023-12-20T09:58:48;98993.20;;;4.60
69590;BMP180;56792;50.644;17.984;2023-12-20T10:01:20;98993.20;;;4.62
69590;BMP180;56792;50.644;17.984;2023-12-20T10:03:55;98993.80;;;4.68
69590;BMP180;56792;50.644;17.984;2023-12-20T10:06:28;98988.60;;;4.70
69590;BMP180;56792;50.644;17.984;2023-12-20T10:08:59;98986.00;;;4.70
69590;BMP180;56792;50.644;17.984;2023-12-20T10:11:31;98979.60;;;4.70
69590;BMP180;56792;50.644;17.984;2023-12-20T10:14:03;98982.40;;;4.70
69590;BMP180;56792;50.644;17.984;2023-12-20T10:16:35;98976.00;;;4.70
69590;BMP180;56792;50.644;17.984;2023-12-20T10:19:06;98977.40;;;4.70
69590;BMP180;56792;50.644;17.984;2023-12-20T10:21:37;98975.40;;;4.70
69590;BMP180;56792;50.644;17.984;2023-12-20T10:24:09;98975.80;;;4.70
69590;BMP180;56792;50.644;17.984;2023-12-20T10:26:40;98974.80;;;4.70
69590;BMP180;56792;50.644;17.984;2023-12-20T10:29:11;98977.40;;;4.70
69590;BMP180;56792;50.644;17.984;2023-12-20T10:31:43;98975.80;;;4.70
69590;BMP180;56792;50.644;17.984;2023-12-20T10:34:15;98975.60;;;4.70
69590;BMP180;56792;50.644;17.984;2023-12-20T10:36:47;98978.80;;;4.70
69590;BMP180;56792;50.644;17.984;2023-12-20T10:39:19;98979.40;;;4.70
69590;BMP180;56792;50.644;17.984;2023-12-20T10:41:51;98971.80;;;4.70
69590;BMP180;56792;50.644;17.984;2023-12-20T10:44:22;98974.60;;;4.72
69590;BMP180;56792;50.644;17.984;2023-12-20T10:46:53;98978.60;;;4.78
69590;BMP180;56792;50.644;17.984;2023-12-20T10:49:29;98968.80;;;4.80
69590;BMP180;56792;50.644;17.984;2023-12-20T10:52:04;98965.80;;;4.80
69590;BMP180;56792;50.644;17.984;2023-12-20T10:54:36;98976.20;;;4.80
69590;BMP180;56792;50.644;17.984;2023-12-20T10:57:09;98971.20;;;4.80
69590;BMP180;56792;50.644;17.984;2023-12-20T10:59:41;98970.80;;;4.84
69590;BMP180;56792;50.644;17.984;2023-12-20T11:02:12;98972.80;;;4.90
69590;BMP180;56792;50.644;17.984;2023-12-20T11:04:53;98968.60;;;4.94
69590;BMP180;56792;50.644;17.984;2023-12-20T11:07:32;98959.80;;;5.00
69590;BMP180;56792;50.644;17.984;2023-12-20T11:10:19;98958.40;;;5.10
69590;BMP180;56792;50.644;17.984;2023-12-20T11:12:54;98956.80;;;5.30
69590;BMP180;56792;50.644;17.984;2023-12-20T11:15:27;98957.20;;;5.40
69590;BMP180;56792;50.644;17.984;2023-12-20T11:18:00;98960.40;;;5.50
69590;BMP180;56792;50.644;17.984;2023-12-20T11:20:40;98959.60;;;5.50
69590;BMP180;56792;50.644;17.984;2023-12-20T11:23:12;98945.40;;;5.50
69590;BMP180;56792;50.644;17.984;2023-12-20T11:25:56;98951.40;;;5.50
69590;BMP180;56792;50.644;17.984;2023-12-20T11:28:28;98954.00;;;5.50
69590;BMP180;56792;50.644;17.984;2023-12-20T11:31:02;98940.80;;;5.50
69590;BMP180;56792;50.644;17.984;2023-12-20T11:33:38;98953.80;;;5.50
69590;BMP180;56792;50.644;17.984;2023-12-20T11:36:18;98947.20;;;5.50
69590;BMP180;56792;50.644;17.984;2023-12-20T11:39:00;98951.20;;;5.50
69590;BMP180;56792;50.644;17.984;2023-12-20T11:41:35;98951.80;;;5.50
69590;BMP180;56792;50.644;17.984;2023-12-20T11:44:09;98954.00;;;5.60
69590;BMP180;56792;50.644;17.984;2023-12-20T11:46:42;98950.60;;;5.60
69590;BMP180;56792;50.644;17.984;2023-12-20T11:49:13;98946.20;;;5.60
69590;BMP180;56792;50.644;17.984;2023-12-20T11:51:45;98937.80;;;5.50
69590;BMP180;56792;50.644;17.984;2023-12-20T11:54:17;98931.40;;;5.52
69590;BMP180;56792;50.644;17.984;2023-12-20T11:56:49;98936.00;;;5.50
69590;BMP180;56792;50.644;17.984;2023-12-20T11:59:20;98943.80;;;5.50
69590;BMP180;56792;50.644;17.984;2023-12-20T12:01:54;98941.60;;;5.50
69590;BMP180;56792;50.644;17.984;2023-12-20T12:04:30;98940.00;;;5.50
69590;BMP180;56792;50.644;17.984;2023-12-20T12:07:01;98943.60;;;5.50
69590;BMP180;56792;50.644;17.984;2023-12-20T12:09:32;98941.20;;;5.50
69590;BMP180;56792;50.644;17.984;2023-12-20T12:12:05;98932.80;;;5.50
69590;BMP180;56792;50.644;17.984;2023-12-20T12:14:36;98927.80;;;5.50
69590;BMP180;56792;50.644;17.984;2023-12-20T12:17:11;98917.40;;;5.50
69590;BMP180;56792;50.644;17.984;2023-12-20T12:19:43;98917.40;;;5.60
69590;BMP180;56792;50.644;17.984;2023-12-20T12:22:15;98914.40;;;5.70
69590;BMP180;56792;50.644;17.984;2023-12-20T12:24:49;98914.60;;;5.80
69590;BMP180;56792;50.644;17.984;2023-12-20T12:27:20;98903.20;;;5.80
69590;BMP180;56792;50.644;17.984;2023-12-20T12:30:10;98906.40;;;5.80
69590;BMP180;56792;50.644;17.984;2023-12-20T12:32:43;98915.40;;;5.80
69590;BMP180;56792;50.644;17.984;2023-12-20T12:35:15;98908.60;;;5.80
69590;BMP180;56792;50.644;17.984;2023-12-20T12:37:46;98909.40;;;5.72
69590;BMP180;56792;50.644;17.984;2023-12-20T12:40:18;98903.40;;;5.60
69590;BMP180;56792;50.644;17.984;2023-12-20T12:42:49;98898.00;;;5.50
69590;BMP180;56792;50.644;17.984;2023-12-20T12:45:20;98900.80;;;5.50
69590;BMP180;56792;50.644;17.984;2023-12-20T12:47:51;98901.20;;;5.50
69590;BMP180;56792;50.644;17.984;2023-12-20T12:50:24;98902.00;;;5.40
69590;BMP180;56792;50.644;17.984;2023-12-20T12:52:57;98898.00;;;5.42
69590;BMP180;56792;50.644;17.984;2023-12-20T12:55:28;98896.40;;;5.42
69590;BMP180;56792;50.644;17.984;2023-12-20T12:57:59;98890.80;;;5.50
69590;BMP180;56792;50.644;17.984;2023-12-20T13:00:30;98887.60;;;5.50
69590;BMP180;56792;50.644;17.984;2023-12-20T13:03:01;98888.20;;;5.50
69590;BMP180;56792;50.644;17.984;2023-12-20T13:05:33;98886.80;;;5.58
69590;BMP180;56792;50.644;17.984;2023-12-20T13:08:06;98885.00;;;5.60
69590;BMP180;56792;50.644;17.984;2023-12-20T13:10:37;98884.20;;;5.60
69590;BMP180;56792;50.644;17.984;2023-12-20T13:13:08;98887.60;;;5.60
69590;BMP180;56792;50.644;17.984;2023-12-20T13:15:39;98890.80;;;5.60
69590;BMP180;56792;50.644;17.984;2023-12-20T13:18:11;98887.80;;;5.60
69590;BMP180;56792;50.644;17.984;2023-12-20T13:20:41;98886.40;;;5.60
69590;BMP180;56792;50.644;17.984;2023-12-20T13:23:13;98891.00;;;5.70
69590;BMP180;56792;50.644;17.984;2023-12-20T13:25:44;98892.80;;;5.70
69590;BMP180;56792;50.644;17.984;2023-12-20T13:28:16;98891.60;;;5.70
69590;BMP180;56792;50.644;17.984;2023-12-20T13:30:47;98891.00;;;5.70
69590;BMP180;56792;50.644;17.984;2023-12-20T13:33:18;98889.20;;;5.74
69590;BMP180;56792;50.644;17.984;2023-12-20T13:35:49;98878.00;;;5.80
69590;BMP180;56792;50.644;17.984;2023-12-20T13:38:20;98882.80;;;5.80
69590;BMP180;56792;50.644;17.984;2023-12-20T13:40:51;98879.80;;;5.84
69590;BMP180;56792;50.644;17.984;2023-12-20T13:43:22;98883.80;;;5.86
69590;BMP180;56792;50.644;17.984;2023-12-20T13:45:54;98883.00;;;5.90
69590;BMP180;56792;50.644;17.984;2023-12-20T13:48:25;98880.20;;;5.86
69590;BMP180;56792;50.644;17.984;2023-12-20T13:50:56;98882.40;;;5.80
69590;BMP180;56792;50.644;17.984;2023-12-20T13:53:28;98878.40;;;5.80
69590;BMP180;56792;50.644;17.984;2023-12-20T13:55:59;98871.00;;;5.80
69590;BMP180;56792;50.644;17.984;2023-12-20T13:58:30;98869.60;;;5.80
69590;BMP180;56792;50.644;17.984;2023-12-20T14:01:01;98869.20;;;5.70
69590;BMP180;56792;50.644;17.984;2023-12-20T14:03:32;98867.00;;;5.70
69590;BMP180;56792;50.644;17.984;2023-12-20T14:06:03;98866.40;;;5.68
69590;BMP180;56792;50.644;17.984;2023-12-20T14:08:34;98863.40;;;5.60
69590;BMP180;56792;50.644;17.984;2023-12-20T14:11:05;98862.60;;;5.60
69590;BMP180;56792;50.644;17.984;2023-12-20T14:13:36;98861.80;;;5.60
69590;BMP180;56792;50.644;17.984;2023-12-20T14:16:08;98863.60;;;5.60
69590;BMP180;56792;50.644;17.984;2023-12-20T14:18:41;98874.60;;;5.60
69590;BMP180;56792;50.644;17.984;2023-12-20T14:21:12;98870.60;;;5.60
69590;BMP180;56792;50.644;17.984;2023-12-20T14:23:43;98869.60;;;5.60
69590;BMP180;56792;50.644;17.984;2023-12-20T14:26:15;98872.80;;;5.60
69590;BMP180;56792;50.644;17.984;2023-12-20T14:28:46;98863.40;;;5.50
69590;BMP180;56792;50.644;17.984;2023-12-20T14:31:17;98861.40;;;5.50
69590;BMP180;56792;50.644;17.984;2023-12-20T14:33:48;98865.00;;;5.50